LBWN

Varna Airport

Varna, Bulgaria
TAF LBWN 211700Z 2118/2218 VRB04KT 9999 SCT030 BKN040 TEMPO 2118/2120 3000 TSRA SCT030CB BKN040 PROB40 TEMPO 2122/2202 5000 TSRA SCT030CB BKN040 BECMG 2208/2210 09012KT TEMPO 2211/2218 4000 TSRA SCT030CB BKN040
Issued Valid From Valid To
Jul-21 @ 17:00 UTC
(6 hours ago)
Jul-21 @ 18:00 UTC
(5 hours ago)
Jul-22 @ 18:00 UTC
(in 19 hours)
Jul-21 @ 18:00 to Jul-22 @ 08:00
TAF LBWN 211700Z 2118/2218 VRB04KT 9999 SCT030 BKN040
Wind Visibility Clouds
Variable at 4 knots 10,000+ meters
  • Scattered at 3,000' AGL
  • Broken at 4,000' AGL
Expired Click to View Jul-21 @ 18:00 to Jul-21 @ 20:00
TEMPO 2118/2120 3000 TSRA SCT030CB BKN040
Visibility Clouds Conditions
2,993 meters
  • Scattered at 3,000' AGL
  • Broken at 4,000' AGL
  • Thunderstorm
  • Rain
Temporary  (Probability 40%) Jul-21 @ 22:00 to Jul-22 @ 02:00
PROB40 TEMPO 2122/2202 5000 TSRA SCT030CB BKN040
Visibility Clouds Conditions
5,005 meters
  • Scattered at 3,000' AGL
  • Broken at 4,000' AGL
  • Thunderstorm
  • Rain
Becoming Jul-22 @ 08:00 to Jul-22 @ 18:00
BECMG 2208/2210 09012KT
Wind Visibility Clouds
90° at 12 knots 10,000+ meters
  • Scattered at 3,000' AGL
  • Broken at 4,000' AGL
Temporary Jul-22 @ 11:00 to Jul-22 @ 18:00
TEMPO 2211/2218 4000 TSRA SCT030CB BKN040
Visibility Clouds Conditions
4,007 meters
  • Scattered at 3,000' AGL
  • Broken at 4,000' AGL
  • Thunderstorm
  • Rain
TAF LBWN 211700Z 2118/2218 VRB04KT 9999 SCT030 BKN040 TEMPO 2118/2120 3000 TSRA SCT030CB BKN040 PROB40 TEMPO 2122/2202 5000 TSRA SCT030CB BKN040 BECMG 2208/2210 09012KT TEMPO 2211/2218 4000 TSRA SCT030CB BKN040
Issued Jul-21 @ 17:00 UTC
(6 hours ago)
Valid From Jul-21 @ 18:00 UTC
(5 hours ago)
Valid To Jul-22 @ 18:00 UTC
(in 19 hours)
Jul-21 @ 18:00 - Jul-22 @ 08:00
Wind Visibility
Variable at 4 knots 10,000+ meters
Clouds
  • Scattered at 3,000' AGL
  • Broken at 4,000' AGL
Jul-21 @ 18:00 - Jul-21 @ 20:00
Clouds
  • Scattered at 3,000' AGL
  • Broken at 4,000' AGL
Conditions
  • Thunderstorm
  • Rain
Probability 40% Temporary Jul-21 @ 22:00 - Jul-22 @ 02:00
Clouds
  • Scattered at 3,000' AGL
  • Broken at 4,000' AGL
Conditions
  • Thunderstorm
  • Rain
Becoming Jul-22 @ 08:00 - Jul-22 @ 18:00
Wind Visibility
90° at 12 knots 10,000+ meters
Clouds
  • Scattered at 3,000' AGL
  • Broken at 4,000' AGL
Temporary Jul-22 @ 11:00 - Jul-22 @ 18:00
Clouds
  • Scattered at 3,000' AGL
  • Broken at 4,000' AGL
Conditions
  • Thunderstorm
  • Rain